Main page
METAR-TAF:

METAR-TAF

Airports :

Burgas Airport

Burgas, Bulgaria

latitude: 42-29N, longitude: 027-29E, elevation: 16 m

Current weather observation

The report was made 11 minutes ago, at 03:30 UTC
Wind 3 kt from the West
Temperature 13°C
Humidity 100%
Pressure 1022 hPa
Visibility: 3500 m
mist

METAR: LBBG 260330Z 27003KT 9000 3500NE BR NSC 13/13 Q1022 TEMPO 1200 BR

Time: 06:41 (03:41 UTC)

Forecast

The report was made 4 hours and 41 minutes ago, at 23:00 UTC
Forecast valid from 26 at 00 UTC to 26 at 24 UTC
Wind 4 kt from variable directions
Visibility 10 km or more
no clouds below 1500 m and no cumulonimbus
Temporary
from 26 at 02 UTC to 26 at 05 UTC
Visibility: 4000 m
mist
Becoming
from 26 at 09 UTC to 26 at 11 UTC
Wind 12 kt from the East/Southeast
Becoming
from 26 at 18 UTC to 26 at 20 UTC
Wind 4 kt from variable directions

TAF: LBBG 252300Z 2600/2624 VRB04KT CAVOK TEMPO 2602/2605 4000 BR BECMG 2609/2611 12012KT BECMG 2618/2620 VRB04KT

Weather observations and forecasts of more than 4000 airports (METAR and TAF reports).

The available stations are represented by yellow and red dots on the map.

Hover mouse over dot to see the name of the station.

Then click to see weather observations and forecasts.

To change the map : click on the green buttons with a black cross to zoom in, on the green button with a dash to zoom out, or on the green arrows for adjacent maps.


METAR-TAF: